createdAt,value
2023-03-26T00:00:54.347Z,2.80
2023-03-26T00:03:22.492Z,1.88
2023-03-26T00:05:50.205Z,2.30
2023-03-26T00:08:18.173Z,1.35
2023-03-26T00:10:46.110Z,1.10
2023-03-26T00:13:13.869Z,1.47
2023-03-26T00:15:41.377Z,1.38
2023-03-26T00:18:09.361Z,1.10
2023-03-26T00:20:38.480Z,1.38
2023-03-26T00:23:06.230Z,1.80
2023-03-26T00:25:34.894Z,1.87
2023-03-26T00:28:03.969Z,1.58
2023-03-26T00:30:31.675Z,2.33
2023-03-26T00:32:59.334Z,5.25
2023-03-26T00:35:26.919Z,2.75
2023-03-26T00:37:54.468Z,2.07
2023-03-26T00:40:23.472Z,2.70
2023-03-26T00:42:51.229Z,1.63
2023-03-26T00:45:21.401Z,2.22
2023-03-26T00:47:49.149Z,1.50
2023-03-26T00:50:16.834Z,1.33
2023-03-26T00:52:47.355Z,2.05
2023-03-26T00:55:16.219Z,0.93
2023-03-26T00:57:46.120Z,2.20
2023-03-26T01:00:17.194Z,2.63
2023-03-26T01:02:45.261Z,1.00
2023-03-26T01:05:31.741Z,1.42
2023-03-26T01:10:50.904Z,1.20
2023-03-26T01:13:19.733Z,2.10
2023-03-26T01:15:51.213Z,2.13
2023-03-26T01:18:22.237Z,1.33
2023-03-26T01:20:50.355Z,1.55
2023-03-26T01:23:24.473Z,0.90
2023-03-26T01:25:55.943Z,2.78
2023-03-26T01:28:23.653Z,1.20
2023-03-26T01:30:51.932Z,2.00
2023-03-26T01:33:29.992Z,1.20
2023-03-26T01:35:57.874Z,1.92
2023-03-26T01:38:29.297Z,1.33
2023-03-26T01:41:00.068Z,1.27
2023-03-26T01:43:33.864Z,2.80
2023-03-26T01:46:02.000Z,1.40
2023-03-26T01:48:31.309Z,1.23
2023-03-26T01:50:58.966Z,1.33
2023-03-26T01:53:26.421Z,2.13
2023-03-26T01:55:56.130Z,2.53
2023-03-26T01:58:29.256Z,1.40
2023-03-26T02:01:04.133Z,3.78
2023-03-26T02:03:32.372Z,2.17
2023-03-26T02:06:06.213Z,2.97
2023-03-26T02:08:38.469Z,2.13
2023-03-26T02:11:11.530Z,1.70
2023-03-26T02:13:39.964Z,4.13
2023-03-26T02:16:08.498Z,2.95
2023-03-26T02:18:36.838Z,2.47
2023-03-26T02:21:05.568Z,3.40
2023-03-26T02:23:35.971Z,1.77
2023-03-26T02:26:06.495Z,1.42
2023-03-26T02:28:34.127Z,1.65
2023-03-26T02:31:02.084Z,1.83
2023-03-26T02:33:30.177Z,1.25
2023-03-26T02:36:02.175Z,1.10
2023-03-26T02:38:30.400Z,1.17
2023-03-26T02:40:57.938Z,3.72
2023-03-26T02:43:25.509Z,1.27
2023-03-26T02:45:53.315Z,1.60
2023-03-26T02:48:21.656Z,2.17
2023-03-26T02:50:50.304Z,1.63
2023-03-26T02:53:17.809Z,1.70
2023-03-26T02:55:45.473Z,1.57
2023-03-26T02:58:17.650Z,1.20
2023-03-26T03:00:47.007Z,1.20
2023-03-26T03:03:17.245Z,2.47
2023-03-26T03:05:44.889Z,1.08
2023-03-26T03:08:13.449Z,1.07
2023-03-26T03:10:41.271Z,3.15
2023-03-26T03:13:08.842Z,1.70
2023-03-26T03:15:36.383Z,2.33
2023-03-26T03:18:04.070Z,2.38
2023-03-26T03:20:31.674Z,1.70
2023-03-26T03:22:59.324Z,2.08
2023-03-26T03:25:26.856Z,2.58
2023-03-26T03:27:54.601Z,2.13
2023-03-26T03:30:22.135Z,3.00
2023-03-26T03:32:49.727Z,2.50
2023-03-26T03:35:17.413Z,1.48
2023-03-26T03:37:45.106Z,3.03
2023-03-26T03:40:13.379Z,2.55
2023-03-26T03:42:40.939Z,2.63
2023-03-26T03:45:08.943Z,1.63
2023-03-26T03:47:36.461Z,1.48
2023-03-26T03:50:04.500Z,2.45
2023-03-26T03:52:34.496Z,3.22
2023-03-26T03:55:03.700Z,1.40
2023-03-26T03:57:33.597Z,1.40
2023-03-26T04:00:01.545Z,3.45
2023-03-26T04:02:34.950Z,1.92
2023-03-26T04:05:03.434Z,5.45
2023-03-26T04:07:32.224Z,1.10
2023-03-26T04:10:02.043Z,2.80
2023-03-26T04:12:29.784Z,1.48
2023-03-26T04:14:57.348Z,1.60
2023-03-26T04:17:24.907Z,2.75
2023-03-26T04:19:55.189Z,1.63
2023-03-26T04:22:23.638Z,1.00
2023-03-26T04:24:54.505Z,1.58
2023-03-26T04:27:24.644Z,1.60
2023-03-26T04:29:55.173Z,1.52
2023-03-26T04:32:26.607Z,2.08
2023-03-26T04:34:54.349Z,2.40
2023-03-26T04:37:24.817Z,1.95
2023-03-26T04:39:52.434Z,2.65
2023-03-26T04:42:20.058Z,1.63
2023-03-26T04:44:50.929Z,2.65
2023-03-26T04:47:21.497Z,3.13
2023-03-26T04:49:49.089Z,1.75
2023-03-26T04:52:16.605Z,2.22
2023-03-26T04:54:44.422Z,0.93
2023-03-26T04:57:22.506Z,2.70
2023-03-26T04:59:50.258Z,4.23
2023-03-26T05:02:17.998Z,4.50
2023-03-26T05:04:46.104Z,3.35
2023-03-26T05:07:16.116Z,2.00
2023-03-26T05:09:43.815Z,1.15
2023-03-26T05:12:11.268Z,2.33
2023-03-26T05:14:38.854Z,1.90
2023-03-26T05:17:06.385Z,3.30
2023-03-26T05:19:34.071Z,1.65
2023-03-26T05:22:02.484Z,2.03
2023-03-26T05:24:29.944Z,1.07
2023-03-26T05:26:57.594Z,1.50
2023-03-26T05:29:25.154Z,1.17
2023-03-26T05:31:52.628Z,1.20
2023-03-26T05:34:20.764Z,1.52
2023-03-26T05:36:48.679Z,1.37
2023-03-26T05:39:16.080Z,1.25
2023-03-26T05:41:43.781Z,2.22
2023-03-26T05:44:11.398Z,1.63
2023-03-26T05:46:39.019Z,1.17
2023-03-26T05:49:06.629Z,2.03
2023-03-26T05:51:34.562Z,1.65
2023-03-26T05:54:02.082Z,1.23
2023-03-26T05:56:29.776Z,2.00
2023-03-26T05:58:57.483Z,1.55
2023-03-26T06:01:25.660Z,1.13
2023-03-26T06:03:53.626Z,1.70
2023-03-26T06:06:21.501Z,1.00
2023-03-26T06:09:01.013Z,1.83
2023-03-26T06:11:36.865Z,1.50
2023-03-26T06:14:04.390Z,2.50
2023-03-26T06:16:31.984Z,1.42
2023-03-26T06:18:59.803Z,2.47
2023-03-26T06:21:27.645Z,3.63
2023-03-26T06:23:55.395Z,1.90
2023-03-26T06:26:22.925Z,1.60
2023-03-26T06:28:50.543Z,1.60
2023-03-26T06:31:19.356Z,2.05
2023-03-26T06:33:48.838Z,1.77
2023-03-26T06:36:16.497Z,2.40
2023-03-26T06:38:44.049Z,2.67
2023-03-26T06:41:11.466Z,1.75
2023-03-26T06:43:39.522Z,1.85
2023-03-26T06:46:07.038Z,1.92
2023-03-26T06:48:34.579Z,2.30
2023-03-26T06:51:02.103Z,3.57
2023-03-26T06:53:29.633Z,4.45
2023-03-26T06:55:57.090Z,3.47
2023-03-26T06:58:25.234Z,3.58
2023-03-26T07:00:56.225Z,4.50
2023-03-26T07:03:24.156Z,2.13
2023-03-26T07:05:51.859Z,2.90
2023-03-26T07:08:19.539Z,4.03
2023-03-26T07:10:47.487Z,1.50
2023-03-26T07:13:15.710Z,2.05
2023-03-26T07:15:43.223Z,1.80
2023-03-26T07:18:11.506Z,2.15
2023-03-26T07:20:39.146Z,2.10
2023-03-26T07:23:07.412Z,4.70
2023-03-26T07:25:35.156Z,5.00
2023-03-26T07:28:14.814Z,4.10
2023-03-26T07:31:01.731Z,1.83
2023-03-26T07:33:40.025Z,1.83
2023-03-26T07:36:22.670Z,1.52
2023-03-26T07:39:04.163Z,2.15
2023-03-26T07:41:35.340Z,3.43
2023-03-26T07:44:02.965Z,2.08
2023-03-26T07:46:36.110Z,1.42
2023-03-26T07:49:04.671Z,4.07
2023-03-26T07:51:32.498Z,4.43
2023-03-26T07:54:00.721Z,4.37
2023-03-26T07:56:48.859Z,2.78
2023-03-26T07:59:16.453Z,2.75
2023-03-26T08:01:56.646Z,2.50
2023-03-26T08:04:28.012Z,3.67
2023-03-26T08:07:01.307Z,3.47
2023-03-26T08:09:47.471Z,3.30
2023-03-26T08:12:27.029Z,5.20
2023-03-26T08:15:13.467Z,4.32
2023-03-26T08:18:13.540Z,2.97
2023-03-26T08:20:48.209Z,3.10
2023-03-26T08:23:34.336Z,2.22
2023-03-26T08:26:02.629Z,2.95
2023-03-26T08:28:42.948Z,3.00
2023-03-26T08:31:10.971Z,2.58
2023-03-26T08:33:40.778Z,2.47
2023-03-26T08:36:09.420Z,2.15
2023-03-26T08:38:36.974Z,3.08
2023-03-26T08:41:18.970Z,3.65
2023-03-26T08:43:49.642Z,3.53
2023-03-26T08:46:34.451Z,4.40
2023-03-26T08:49:04.191Z,5.25
2023-03-26T08:51:45.791Z,2.88
2023-03-26T08:54:16.634Z,3.20
2023-03-26T08:56:52.876Z,2.38
2023-03-26T08:59:39.480Z,2.80
2023-03-26T09:02:26.059Z,2.20
2023-03-26T09:05:22.861Z,3.58
2023-03-26T09:07:55.476Z,2.33
2023-03-26T09:10:32.146Z,2.30
2023-03-26T09:12:59.720Z,3.47
2023-03-26T09:15:46.998Z,1.73
2023-03-26T09:18:17.628Z,3.78
2023-03-26T09:21:04.009Z,2.95
2023-03-26T09:23:48.548Z,5.85
2023-03-26T09:26:25.435Z,7.33
2023-03-26T09:29:19.144Z,5.57
2023-03-26T09:31:46.646Z,2.85
2023-03-26T09:34:14.467Z,3.15
2023-03-26T09:36:46.770Z,2.38
2023-03-26T09:39:18.320Z,3.20
2023-03-26T09:42:08.922Z,2.25
2023-03-26T09:44:55.190Z,4.60
2023-03-26T09:47:32.471Z,2.92
2023-03-26T09:49:59.986Z,2.28
2023-03-26T09:52:44.616Z,2.43
2023-03-26T09:55:21.680Z,3.78
2023-03-26T09:57:53.916Z,2.95
2023-03-26T10:00:25.677Z,1.52
2023-03-26T10:02:58.188Z,1.30
2023-03-26T10:05:25.759Z,1.57
2023-03-26T10:08:03.367Z,1.48
2023-03-26T10:10:32.833Z,2.00
2023-03-26T10:13:14.046Z,1.20
2023-03-26T10:16:01.552Z,2.20
2023-03-26T10:18:32.613Z,1.70
2023-03-26T10:21:18.755Z,1.00
2023-03-26T10:24:01.499Z,1.20
2023-03-26T10:26:29.028Z,1.60
2023-03-26T10:29:15.097Z,1.42
2023-03-26T10:31:51.678Z,1.50
2023-03-26T10:34:44.568Z,1.60
2023-03-26T10:37:21.270Z,1.90
2023-03-26T10:39:49.756Z,1.60
2023-03-26T10:42:29.503Z,1.20
2023-03-26T10:45:15.909Z,1.63
2023-03-26T10:47:56.116Z,1.30
2023-03-26T10:50:29.907Z,1.30
2023-03-26T10:53:02.267Z,1.70
2023-03-26T10:55:32.842Z,1.42
2023-03-26T10:58:01.400Z,2.30
2023-03-26T11:00:30.098Z,2.50
2023-03-26T11:03:03.740Z,1.85
2023-03-26T11:05:44.752Z,2.22
2023-03-26T11:08:16.279Z,1.77
2023-03-26T11:10:46.816Z,2.00
2023-03-26T11:13:16.762Z,2.33
2023-03-26T11:16:03.190Z,1.77
2023-03-26T11:18:40.203Z,1.50
2023-03-26T11:21:40.439Z,1.52
2023-03-26T11:24:08.236Z,1.90
2023-03-26T11:26:41.346Z,1.80
2023-03-26T11:29:31.077Z,1.73
2023-03-26T11:32:00.752Z,2.97
2023-03-26T11:34:29.326Z,1.52
2023-03-26T11:36:57.464Z,2.13
2023-03-26T11:39:26.475Z,1.65
2023-03-26T11:41:55.581Z,1.70
2023-03-26T11:44:37.148Z,1.83
2023-03-26T11:47:08.831Z,1.58
2023-03-26T11:49:37.101Z,1.90
2023-03-26T11:52:07.625Z,2.33
2023-03-26T11:54:35.123Z,1.37
2023-03-26T11:57:07.363Z,2.83
2023-03-26T11:59:45.286Z,1.77
2023-03-26T12:02:35.614Z,1.55
2023-03-26T12:05:20.409Z,1.60
2023-03-26T12:07:51.264Z,1.20
2023-03-26T12:10:46.279Z,2.15
2023-03-26T12:13:34.416Z,1.40
2023-03-26T12:16:10.635Z,1.27
2023-03-26T12:18:39.812Z,2.38
2023-03-26T12:21:11.955Z,1.23
2023-03-26T12:23:56.951Z,2.20
2023-03-26T12:26:31.864Z,1.40
2023-03-26T12:29:00.907Z,2.10
2023-03-26T12:31:30.522Z,1.48
2023-03-26T12:34:06.056Z,1.50
2023-03-26T12:36:34.004Z,1.60
2023-03-26T12:40:05.942Z,1.38
2023-03-26T12:43:51.577Z,2.10
2023-03-26T12:44:59.186Z,1.80
2023-03-26T12:47:58.515Z,2.20
2023-03-26T12:50:34.145Z,1.70
2023-03-26T12:53:22.880Z,2.83
2023-03-26T12:56:09.473Z,1.92
2023-03-26T12:58:55.095Z,2.97
2023-03-26T13:01:33.248Z,1.67
2023-03-26T13:04:19.668Z,2.27
2023-03-26T13:07:01.222Z,2.60
2023-03-26T13:09:51.008Z,2.30
2023-03-26T13:12:34.061Z,4.55
2023-03-26T13:15:01.554Z,3.90
2023-03-26T13:17:29.296Z,3.20
2023-03-26T13:19:59.693Z,3.30
2023-03-26T13:22:27.467Z,2.72
2023-03-26T13:25:01.222Z,3.75
2023-03-26T13:27:51.743Z,4.10
2023-03-26T13:30:24.233Z,4.00
2023-03-26T13:33:01.254Z,3.33
2023-03-26T13:35:40.778Z,3.20
2023-03-26T13:38:26.854Z,2.25
2023-03-26T13:40:54.793Z,2.92
2023-03-26T13:43:33.668Z,2.13
2023-03-26T13:46:10.923Z,6.13
2023-03-26T13:48:48.210Z,6.37
2023-03-26T13:51:19.307Z,2.80
2023-03-26T13:54:01.488Z,3.10
2023-03-26T13:56:31.755Z,2.70
2023-03-26T13:59:10.528Z,2.38
2023-03-26T14:01:43.453Z,6.00
2023-03-26T14:04:17.798Z,2.55
2023-03-26T14:06:47.990Z,3.40
2023-03-26T14:09:21.709Z,4.43
2023-03-26T14:11:58.855Z,3.05
2023-03-26T14:14:35.092Z,3.40
2023-03-26T14:17:07.656Z,3.65
2023-03-26T14:19:50.060Z,2.50
2023-03-26T14:22:33.795Z,2.75
2023-03-26T14:25:08.527Z,3.83
2023-03-26T14:27:59.514Z,3.53
2023-03-26T14:30:56.672Z,3.73
2023-03-26T14:33:34.261Z,3.58
2023-03-26T14:36:11.623Z,3.60
2023-03-26T14:38:54.317Z,3.85
2023-03-26T14:41:25.630Z,4.38
2023-03-26T14:43:59.030Z,3.60
2023-03-26T14:46:42.031Z,7.13
2023-03-26T14:49:29.001Z,5.15
2023-03-26T14:51:59.630Z,3.38
2023-03-26T14:54:27.677Z,3.08
2023-03-26T14:57:14.240Z,3.15
2023-03-26T15:00:07.369Z,6.63
2023-03-26T15:03:13.875Z,4.40
2023-03-26T15:05:46.664Z,3.67
2023-03-26T15:08:34.239Z,4.60
2023-03-26T15:11:21.404Z,3.55
2023-03-26T15:14:09.204Z,3.40
2023-03-26T15:16:44.976Z,3.30
2023-03-26T15:19:12.707Z,3.88
2023-03-26T15:21:43.280Z,4.18
2023-03-26T15:24:29.802Z,3.28
2023-03-26T15:26:57.524Z,3.80
2023-03-26T15:29:37.232Z,3.92
2023-03-26T15:32:22.475Z,6.15
2023-03-26T15:34:54.722Z,3.85
2023-03-26T15:37:31.482Z,5.10
2023-03-26T15:40:08.647Z,2.63
2023-03-26T15:42:39.282Z,3.28
2023-03-26T15:45:25.629Z,3.58
2023-03-26T15:48:11.144Z,4.00
2023-03-26T15:51:00.725Z,4.80
2023-03-26T15:53:28.948Z,3.33
2023-03-26T15:56:00.693Z,4.15
2023-03-26T15:58:42.209Z,4.47
2023-03-26T16:01:19.178Z,4.60
2023-03-26T16:04:02.495Z,3.63
2023-03-26T16:06:31.445Z,3.23
2023-03-26T16:09:08.695Z,5.28
2023-03-26T16:11:49.885Z,3.80
2023-03-26T16:14:23.161Z,5.13
2023-03-26T16:16:52.834Z,2.90
2023-03-26T16:19:20.792Z,4.63
2023-03-26T16:22:01.582Z,4.28
2023-03-26T16:24:38.693Z,3.42
2023-03-26T16:27:08.355Z,4.80
2023-03-26T16:30:01.918Z,3.30
2023-03-26T16:32:30.209Z,4.20
2023-03-26T16:34:58.239Z,3.63
2023-03-26T16:37:36.208Z,5.57
2023-03-26T16:40:20.890Z,3.67
2023-03-26T16:43:07.399Z,3.72
2023-03-26T16:45:44.249Z,3.30
2023-03-26T16:48:31.721Z,4.90
2023-03-26T16:50:59.443Z,3.65
2023-03-26T16:53:41.767Z,7.38
2023-03-26T16:56:12.537Z,9.63
2023-03-26T16:58:49.341Z,10.80
2023-03-26T17:01:23.069Z,8.27
2023-03-26T17:03:53.308Z,7.80
2023-03-26T17:06:23.379Z,5.47
2023-03-26T17:08:59.302Z,4.53
2023-03-26T17:11:38.448Z,5.80
2023-03-26T17:14:09.426Z,13.85
2023-03-26T17:16:46.041Z,15.52
2023-03-26T17:19:24.749Z,11.15
2023-03-26T17:21:59.991Z,9.85
2023-03-26T17:24:33.892Z,4.83
2023-03-26T17:27:09.848Z,3.90
2023-03-26T17:29:52.170Z,2.95
2023-03-26T17:32:21.636Z,27.98
2023-03-26T17:34:52.466Z,8.52
2023-03-26T17:37:20.522Z,3.33
2023-03-26T17:40:12.278Z,5.47
2023-03-26T17:42:40.409Z,6.45
2023-03-26T17:45:17.731Z,2.00
2023-03-26T17:47:55.036Z,2.63
2023-03-26T17:50:44.175Z,3.97
2023-03-26T17:53:22.324Z,2.45
2023-03-26T17:55:51.265Z,3.72
2023-03-26T17:58:34.933Z,3.10
2023-03-26T18:01:07.957Z,2.80
2023-03-26T18:03:36.569Z,4.13
2023-03-26T18:06:08.404Z,3.25
2023-03-26T18:09:12.088Z,2.53
2023-03-26T18:11:52.196Z,3.13
2023-03-26T18:14:29.017Z,2.92
2023-03-26T18:16:58.034Z,2.67
2023-03-26T18:19:26.638Z,3.50
2023-03-26T18:21:55.159Z,4.70
2023-03-26T18:24:27.799Z,40.55
2023-03-26T18:27:14.836Z,22.20
2023-03-26T18:30:01.963Z,28.23
2023-03-26T18:32:35.746Z,23.42
2023-03-26T18:35:18.842Z,9.18
2023-03-26T18:37:47.479Z,15.52
2023-03-26T18:40:20.185Z,11.32
2023-03-26T18:42:48.122Z,6.83
2023-03-26T18:45:34.927Z,7.65
2023-03-26T18:48:05.743Z,7.18
2023-03-26T18:50:36.973Z,8.27
2023-03-26T18:53:05.102Z,9.98
2023-03-26T18:55:34.487Z,7.03
2023-03-26T18:58:07.549Z,5.50
2023-03-26T19:00:36.748Z,7.72
2023-03-26T19:03:08.225Z,8.18
2023-03-26T19:05:36.515Z,5.78
2023-03-26T19:08:04.937Z,6.37
2023-03-26T19:10:34.756Z,7.68
2023-03-26T19:13:03.229Z,7.95
2023-03-26T19:15:34.207Z,6.90
2023-03-26T19:18:07.557Z,6.60
2023-03-26T19:20:38.930Z,5.23
2023-03-26T19:23:09.272Z,6.28
2023-03-26T19:25:42.021Z,5.47
2023-03-26T19:28:17.969Z,4.90
2023-03-26T19:30:46.094Z,6.15
2023-03-26T19:33:16.377Z,3.63
2023-03-26T19:35:44.564Z,3.92
2023-03-26T19:38:26.124Z,3.35
2023-03-26T19:40:55.495Z,4.10
2023-03-26T19:43:24.277Z,3.78
2023-03-26T19:48:46.292Z,3.78
2023-03-26T19:51:18.279Z,3.60
2023-03-26T19:51:21.117Z,4.20
2023-03-26T19:53:55.607Z,4.82
2023-03-26T19:56:23.460Z,3.67
2023-03-26T19:58:51.749Z,3.30
2023-03-26T20:01:21.042Z,3.95
2023-03-26T20:03:49.848Z,3.78
2023-03-26T20:06:18.805Z,3.28
2023-03-26T20:08:47.191Z,3.00
2023-03-26T20:11:21.188Z,4.27
2023-03-26T20:13:49.019Z,2.50
2023-03-26T20:16:19.641Z,3.30
2023-03-26T20:18:47.762Z,2.63
2023-03-26T20:21:15.949Z,3.28
2023-03-26T20:23:44.020Z,2.03
2023-03-26T20:26:12.466Z,3.97
2023-03-26T20:28:47.690Z,2.50
2023-03-26T20:31:17.169Z,3.15
2023-03-26T20:33:46.131Z,2.92
2023-03-26T20:36:14.065Z,2.43
2023-03-26T20:39:01.954Z,2.97
2023-03-26T20:41:29.810Z,1.83
2023-03-26T20:43:57.296Z,3.65
2023-03-26T20:46:30.911Z,2.20
2023-03-26T20:48:59.940Z,2.13
2023-03-26T20:51:30.746Z,1.85
2023-03-26T20:53:58.682Z,2.67
2023-03-26T20:56:27.074Z,3.47
2023-03-26T20:59:09.776Z,2.25
2023-03-26T21:01:38.975Z,3.10
2023-03-26T21:04:06.946Z,3.03
2023-03-26T21:06:34.516Z,3.13
2023-03-26T21:09:02.365Z,2.70
2023-03-26T21:11:48.671Z,3.05
2023-03-26T21:14:39.164Z,4.13
2023-03-26T21:17:08.175Z,4.57
2023-03-26T21:19:36.279Z,2.97
2023-03-26T21:22:06.497Z,2.95
2023-03-26T21:24:37.048Z,2.70
2023-03-26T21:27:09.773Z,2.03
2023-03-26T21:29:37.709Z,3.97
2023-03-26T21:32:05.831Z,4.10
2023-03-26T21:34:34.195Z,5.25
2023-03-26T21:37:03.034Z,3.15
2023-03-26T21:39:30.657Z,4.93
2023-03-26T21:42:05.479Z,5.32
2023-03-26T21:44:34.076Z,5.05
2023-03-26T21:47:01.744Z,5.20
2023-03-26T21:49:29.609Z,2.90
2023-03-26T21:51:57.790Z,2.20
2023-03-26T21:54:26.569Z,2.22
2023-03-26T21:56:59.176Z,5.28
2023-03-26T21:59:32.752Z,3.13
2023-03-26T22:02:03.229Z,3.00
2023-03-26T22:04:37.683Z,3.13
2023-03-26T22:07:06.604Z,2.72
2023-03-26T22:09:36.881Z,4.25
2023-03-26T22:12:05.459Z,2.58
2023-03-26T22:14:34.485Z,3.80
2023-03-26T22:17:02.104Z,3.90
2023-03-26T22:19:30.570Z,4.28
2023-03-26T22:21:58.424Z,4.05
2023-03-26T22:24:26.331Z,2.78
2023-03-26T22:26:53.792Z,2.83
2023-03-26T22:29:21.526Z,2.10
2023-03-26T22:31:49.093Z,3.67
2023-03-26T22:34:16.774Z,3.63
2023-03-26T22:36:44.306Z,2.70
2023-03-26T22:39:12.333Z,2.60
2023-03-26T22:41:40.261Z,3.23
2023-03-26T22:44:19.244Z,3.80
2023-03-26T22:46:50.621Z,2.35
2023-03-26T22:49:18.448Z,2.83
2023-03-26T22:51:46.907Z,3.40
2023-03-26T22:54:14.695Z,2.93
2023-03-26T22:56:43.604Z,4.43
2023-03-26T22:59:11.261Z,2.85
2023-03-26T23:01:39.061Z,2.25
2023-03-26T23:04:07.108Z,3.58
2023-03-26T23:06:34.688Z,6.93
2023-03-26T23:09:02.281Z,4.38
2023-03-26T23:11:31.121Z,4.03
2023-03-26T23:13:58.802Z,2.33
2023-03-26T23:16:26.612Z,3.35
2023-03-26T23:18:54.210Z,3.10
2023-03-26T23:21:22.434Z,3.60
2023-03-26T23:23:50.496Z,5.07
2023-03-26T23:26:21.468Z,4.82
2023-03-26T23:28:51.134Z,10.45
2023-03-26T23:31:18.867Z,3.63
2023-03-26T23:33:46.792Z,3.83
2023-03-26T23:36:18.394Z,4.80
2023-03-26T23:38:46.793Z,2.88
2023-03-26T23:41:15.289Z,3.03
2023-03-26T23:43:53.776Z,1.50
2023-03-26T23:46:30.316Z,1.55
2023-03-26T23:49:00.115Z,1.85
2023-03-26T23:51:30.341Z,3.17
2023-03-26T23:53:58.466Z,3.47
2023-03-26T23:56:27.808Z,4.00
2023-03-26T23:58:55.408Z,2.45
